sensor_id;sensor_type;location;lat;lon;timestamp;temperature;humidity
20246;DHT22;10281;54.406;18.556;2024-03-23T00:53:27;8.30;99.90
20246;DHT22;10281;54.406;18.556;2024-03-23T00:55:53;8.30;99.90
20246;DHT22;10281;54.406;18.556;2024-03-23T00:58:20;8.40;99.90
20246;DHT22;10281;54.406;18.556;2024-03-23T01:00:47;8.40;99.90
20246;DHT22;10281;54.406;18.556;2024-03-23T01:03:13;8.30;99.90
20246;DHT22;10281;54.406;18.556;2024-03-23T01:05:40;8.40;99.90
20246;DHT22;10281;54.406;18.556;2024-03-23T01:08:06;8.30;99.90
20246;DHT22;10281;54.406;18.556;2024-03-23T01:10:33;8.30;99.90
20246;DHT22;10281;54.406;18.556;2024-03-23T01:13:00;8.30;99.90
20246;DHT22;10281;54.406;18.556;2024-03-23T01:15:26;8.30;99.90
20246;DHT22;10281;54.406;18.556;2024-03-23T01:17:53;8.30;99.90
20246;DHT22;10281;54.406;18.556;2024-03-23T01:20:20;8.30;99.90
20246;DHT22;10281;54.406;18.556;2024-03-23T01:22:46;8.30;99.90
20246;DHT22;10281;54.406;18.556;2024-03-23T01:25:13;8.30;99.90
20246;DHT22;10281;54.406;18.556;2024-03-23T01:27:40;8.30;99.90
20246;DHT22;10281;54.406;18.556;2024-03-23T01:30:07;8.30;99.90
20246;DHT22;10281;54.406;18.556;2024-03-23T01:32:34;8.30;99.90
20246;DHT22;10281;54.406;18.556;2024-03-23T01:35:00;8.30;99.90
20246;DHT22;10281;54.406;18.556;2024-03-23T01:37:27;8.30;99.90
20246;DHT22;10281;54.406;18.556;2024-03-23T01:39:53;8.30;99.90
20246;DHT22;10281;54.406;18.556;2024-03-23T01:42:20;8.30;99.90
20246;DHT22;10281;54.406;18.556;2024-03-23T01:44:47;8.30;99.90
20246;DHT22;10281;54.406;18.556;2024-03-23T01:47:13;8.20;99.90
20246;DHT22;10281;54.406;18.556;2024-03-23T01:49:40;8.20;99.90
20246;DHT22;10281;54.406;18.556;2024-03-23T01:52:07;8.20;99.90
20246;DHT22;10281;54.406;18.556;2024-03-23T01:54:33;8.20;99.90
20246;DHT22;10281;54.406;18.556;2024-03-23T01:57:01;8.10;99.90
20246;DHT22;10281;54.406;18.556;2024-03-23T01:59:28;8.10;99.90
20246;DHT22;10281;54.406;18.556;2024-03-23T02:01:54;8.10;99.90
20246;DHT22;10281;54.406;18.556;2024-03-23T02:04:21;8.10;99.90
20246;DHT22;10281;54.406;18.556;2024-03-23T02:06:47;8.10;99.90
20246;DHT22;10281;54.406;18.556;2024-03-23T02:09:14;8.10;99.90
20246;DHT22;10281;54.406;18.556;2024-03-23T02:11:41;8.10;99.90
20246;DHT22;10281;54.406;18.556;2024-03-23T02:14:08;8.10;99.90
20246;DHT22;10281;54.406;18.556;2024-03-23T02:16:34;8.10;99.90
20246;DHT22;10281;54.406;18.556;2024-03-23T02:19:01;8.10;99.90
20246;DHT22;10281;54.406;18.556;2024-03-23T02:21:28;8.10;99.90
20246;DHT22;10281;54.406;18.556;2024-03-23T02:23:56;8.10;99.90
20246;DHT22;10281;54.406;18.556;2024-03-23T02:26:23;8.10;99.90
20246;DHT22;10281;54.406;18.556;2024-03-23T02:28:49;8.10;99.90
20246;DHT22;10281;54.406;18.556;2024-03-23T02:31:16;8.10;99.90
20246;DHT22;10281;54.406;18.556;2024-03-23T02:33:42;8.10;99.90
20246;DHT22;10281;54.406;18.556;2024-03-23T02:36:09;8.10;99.90
20246;DHT22;10281;54.406;18.556;2024-03-23T02:38:36;8.10;99.90
20246;DHT22;10281;54.406;18.556;2024-03-23T02:41:03;8.10;99.90
20246;DHT22;10281;54.406;18.556;2024-03-23T02:43:30;8.10;99.90
20246;DHT22;10281;54.406;18.556;2024-03-23T02:45:57;8.10;99.90
20246;DHT22;10281;54.406;18.556;2024-03-23T02:48:24;8.10;99.90
20246;DHT22;10281;54.406;18.556;2024-03-23T02:50:51;8.10;99.90
20246;DHT22;10281;54.406;18.556;2024-03-23T02:53:18;8.10;99.90
20246;DHT22;10281;54.406;18.556;2024-03-23T02:55:44;8.10;99.90
20246;DHT22;10281;54.406;18.556;2024-03-23T02:58:11;8.10;99.90
20246;DHT22;10281;54.406;18.556;2024-03-23T03:00:38;8.10;99.90
20246;DHT22;10281;54.406;18.556;2024-03-23T03:03:04;8.10;99.90
20246;DHT22;10281;54.406;18.556;2024-03-23T03:05:31;8.10;99.90
20246;DHT22;10281;54.406;18.556;2024-03-23T03:07:58;8.00;99.90
20246;DHT22;10281;54.406;18.556;2024-03-23T03:10:24;8.00;99.90
20246;DHT22;10281;54.406;18.556;2024-03-23T03:12:51;8.00;99.90
20246;DHT22;10281;54.406;18.556;2024-03-23T03:15:17;8.00;99.90
20246;DHT22;10281;54.406;18.556;2024-03-23T03:17:45;8.00;99.90
20246;DHT22;10281;54.406;18.556;2024-03-23T03:20:11;8.00;99.90
20246;DHT22;10281;54.406;18.556;2024-03-23T03:22:39;8.00;99.90
20246;DHT22;10281;54.406;18.556;2024-03-23T03:25:06;8.00;99.90
20246;DHT22;10281;54.406;18.556;2024-03-23T03:27:33;8.00;99.90
20246;DHT22;10281;54.406;18.556;2024-03-23T03:30:00;7.90;99.90
20246;DHT22;10281;54.406;18.556;2024-03-23T03:32:29;7.90;99.90
20246;DHT22;10281;54.406;18.556;2024-03-23T03:34:56;7.90;99.90
20246;DHT22;10281;54.406;18.556;2024-03-23T03:37:22;7.90;99.90
20246;DHT22;10281;54.406;18.556;2024-03-23T03:39:49;7.90;99.90
20246;DHT22;10281;54.406;18.556;2024-03-23T03:42:16;7.90;99.90
20246;DHT22;10281;54.406;18.556;2024-03-23T03:44:42;7.90;99.90
20246;DHT22;10281;54.406;18.556;2024-03-23T03:47:09;7.90;99.90
20246;DHT22;10281;54.406;18.556;2024-03-23T03:49:35;7.90;99.90
20246;DHT22;10281;54.406;18.556;2024-03-23T03:52:02;7.90;99.90
20246;DHT22;10281;54.406;18.556;2024-03-23T03:54:28;7.90;99.90
20246;DHT22;10281;54.406;18.556;2024-03-23T03:56:55;7.90;99.90
20246;DHT22;10281;54.406;18.556;2024-03-23T03:59:22;7.90;99.90
20246;DHT22;10281;54.406;18.556;2024-03-23T04:01:48;7.90;99.90
20246;DHT22;10281;54.406;18.556;2024-03-23T04:04:15;7.80;99.90
20246;DHT22;10281;54.406;18.556;2024-03-23T04:06:43;7.90;99.90
20246;DHT22;10281;54.406;18.556;2024-03-23T04:09:10;7.80;99.90
20246;DHT22;10281;54.406;18.556;2024-03-23T04:11:37;7.80;99.90
20246;DHT22;10281;54.406;18.556;2024-03-23T04:14:03;7.80;99.90
20246;DHT22;10281;54.406;18.556;2024-03-23T04:16:34;7.80;99.90
20246;DHT22;10281;54.406;18.556;2024-03-23T04:19:01;7.80;99.90
20246;DHT22;10281;54.406;18.556;2024-03-23T04:21:28;7.70;99.90
20246;DHT22;10281;54.406;18.556;2024-03-23T04:23:54;7.80;99.90
20246;DHT22;10281;54.406;18.556;2024-03-23T04:26:21;7.70;99.90
20246;DHT22;10281;54.406;18.556;2024-03-23T04:28:47;7.70;99.90
20246;DHT22;10281;54.406;18.556;2024-03-23T04:31:14;7.70;99.90
20246;DHT22;10281;54.406;18.556;2024-03-23T04:33:41;7.70;99.90
20246;DHT22;10281;54.406;18.556;2024-03-23T04:36:08;7.70;99.90
20246;DHT22;10281;54.406;18.556;2024-03-23T04:38:36;7.70;99.90
20246;DHT22;10281;54.406;18.556;2024-03-23T04:41:02;7.70;99.90
20246;DHT22;10281;54.406;18.556;2024-03-23T04:43:29;7.70;99.90
20246;DHT22;10281;54.406;18.556;2024-03-23T04:45:55;7.70;99.90
20246;DHT22;10281;54.406;18.556;2024-03-23T04:48:23;7.70;99.90
20246;DHT22;10281;54.406;18.556;2024-03-23T04:50:54;7.70;99.90
20246;DHT22;10281;54.406;18.556;2024-03-23T04:53:18;7.70;99.90
20246;DHT22;10281;54.406;18.556;2024-03-23T04:55:45;7.70;99.90
20246;DHT22;10281;54.406;18.556;2024-03-23T04:58:12;7.70;99.90
20246;DHT22;10281;54.406;18.556;2024-03-23T05:00:38;7.70;99.90
20246;DHT22;10281;54.406;18.556;2024-03-23T05:03:05;7.70;99.90
20246;DHT22;10281;54.406;18.556;2024-03-23T05:05:32;7.70;99.90
20246;DHT22;10281;54.406;18.556;2024-03-23T05:07:58;7.70;99.90
20246;DHT22;10281;54.406;18.556;2024-03-23T05:10:25;7.70;99.90
20246;DHT22;10281;54.406;18.556;2024-03-23T05:12:52;7.80;99.90
20246;DHT22;10281;54.406;18.556;2024-03-23T05:15:19;7.80;99.90
20246;DHT22;10281;54.406;18.556;2024-03-23T05:17:45;7.80;99.90
20246;DHT22;10281;54.406;18.556;2024-03-23T05:20:12;7.80;99.90
20246;DHT22;10281;54.406;18.556;2024-03-23T05:22:39;7.80;99.90
20246;DHT22;10281;54.406;18.556;2024-03-23T05:25:06;7.80;99.90
20246;DHT22;10281;54.406;18.556;2024-03-23T05:27:33;7.90;99.90
20246;DHT22;10281;54.406;18.556;2024-03-23T05:30:00;7.90;99.90
20246;DHT22;10281;54.406;18.556;2024-03-23T05:32:26;7.90;99.90
20246;DHT22;10281;54.406;18.556;2024-03-23T05:34:54;7.90;99.90
20246;DHT22;10281;54.406;18.556;2024-03-23T05:37:23;7.90;99.90
20246;DHT22;10281;54.406;18.556;2024-03-23T05:39:49;8.00;99.90
20246;DHT22;10281;54.406;18.556;2024-03-23T05:42:17;8.00;99.90
20246;DHT22;10281;54.406;18.556;2024-03-23T05:44:45;8.00;99.90
20246;DHT22;10281;54.406;18.556;2024-03-23T05:47:12;8.00;99.90
20246;DHT22;10281;54.406;18.556;2024-03-23T05:49:40;8.00;99.90
20246;DHT22;10281;54.406;18.556;2024-03-23T05:52:08;8.00;99.90
20246;DHT22;10281;54.406;18.556;2024-03-23T05:54:36;8.10;99.90
20246;DHT22;10281;54.406;18.556;2024-03-23T05:57:03;8.10;99.90
20246;DHT22;10281;54.406;18.556;2024-03-23T05:59:30;8.10;99.90
20246;DHT22;10281;54.406;18.556;2024-03-23T06:01:57;8.10;99.90
20246;DHT22;10281;54.406;18.556;2024-03-23T06:04:24;8.10;99.90
20246;DHT22;10281;54.406;18.556;2024-03-23T06:06:51;8.10;99.90
20246;DHT22;10281;54.406;18.556;2024-03-23T06:09:19;8.10;99.90
20246;DHT22;10281;54.406;18.556;2024-03-23T06:11:45;8.10;99.90
20246;DHT22;10281;54.406;18.556;2024-03-23T06:14:12;8.10;99.90
20246;DHT22;10281;54.406;18.556;2024-03-23T06:16:39;8.00;99.90
20246;DHT22;10281;54.406;18.556;2024-03-23T06:19:05;8.10;99.90
20246;DHT22;10281;54.406;18.556;2024-03-23T06:21:33;8.10;99.90
20246;DHT22;10281;54.406;18.556;2024-03-23T06:23:59;8.00;99.90
20246;DHT22;10281;54.406;18.556;2024-03-23T06:26:26;8.00;99.90
20246;DHT22;10281;54.406;18.556;2024-03-23T06:28:53;8.10;99.90
20246;DHT22;10281;54.406;18.556;2024-03-23T06:31:20;8.00;99.90
20246;DHT22;10281;54.406;18.556;2024-03-23T06:33:46;8.10;99.90
20246;DHT22;10281;54.406;18.556;2024-03-23T06:36:13;8.00;99.90
20246;DHT22;10281;54.406;18.556;2024-03-23T06:38:39;8.10;99.90
20246;DHT22;10281;54.406;18.556;2024-03-23T06:41:06;8.20;99.90
20246;DHT22;10281;54.406;18.556;2024-03-23T06:43:33;8.20;99.90
20246;DHT22;10281;54.406;18.556;2024-03-23T06:45:59;8.20;99.90
20246;DHT22;10281;54.406;18.556;2024-03-23T06:48:26;8.20;99.90
20246;DHT22;10281;54.406;18.556;2024-03-23T06:50:56;8.20;99.90
20246;DHT22;10281;54.406;18.556;2024-03-23T06:53:23;8.10;99.90
20246;DHT22;10281;54.406;18.556;2024-03-23T06:55:52;8.10;99.90
20246;DHT22;10281;54.406;18.556;2024-03-23T06:58:20;8.20;99.90
20246;DHT22;10281;54.406;18.556;2024-03-23T07:00:47;8.20;99.90
20246;DHT22;10281;54.406;18.556;2024-03-23T07:03:14;8.30;99.90
20246;DHT22;10281;54.406;18.556;2024-03-23T07:05:40;8.30;99.90
20246;DHT22;10281;54.406;18.556;2024-03-23T07:08:08;8.30;99.90
20246;DHT22;10281;54.406;18.556;2024-03-23T07:10:37;8.30;99.90
20246;DHT22;10281;54.406;18.556;2024-03-23T07:13:04;8.30;99.90
20246;DHT22;10281;54.406;18.556;2024-03-23T07:15:30;8.30;99.90
20246;DHT22;10281;54.406;18.556;2024-03-23T07:17:57;8.30;99.90
20246;DHT22;10281;54.406;18.556;2024-03-23T07:20:23;8.30;99.90
20246;DHT22;10281;54.406;18.556;2024-03-23T07:22:50;8.30;99.90
20246;DHT22;10281;54.406;18.556;2024-03-23T07:25:17;8.30;99.90
20246;DHT22;10281;54.406;18.556;2024-03-23T07:27:43;8.20;99.90
20246;DHT22;10281;54.406;18.556;2024-03-23T07:30:10;8.30;99.90
20246;DHT22;10281;54.406;18.556;2024-03-23T07:32:37;8.40;99.90
20246;DHT22;10281;54.406;18.556;2024-03-23T07:35:04;8.50;99.90
20246;DHT22;10281;54.406;18.556;2024-03-23T07:37:30;8.60;99.90
20246;DHT22;10281;54.406;18.556;2024-03-23T07:39:57;8.70;99.90
20246;DHT22;10281;54.406;18.556;2024-03-23T07:42:25;8.70;99.90
20246;DHT22;10281;54.406;18.556;2024-03-23T07:44:52;8.70;99.90
20246;DHT22;10281;54.406;18.556;2024-03-23T07:47:21;8.70;99.90
20246;DHT22;10281;54.406;18.556;2024-03-23T07:49:47;8.80;99.90
20246;DHT22;10281;54.406;18.556;2024-03-23T07:52:14;8.80;99.90
20246;DHT22;10281;54.406;18.556;2024-03-23T07:54:41;8.80;99.90
20246;DHT22;10281;54.406;18.556;2024-03-23T07:57:07;8.80;99.90
20246;DHT22;10281;54.406;18.556;2024-03-23T07:59:34;8.80;99.90
20246;DHT22;10281;54.406;18.556;2024-03-23T08:02:01;8.80;99.90
20246;DHT22;10281;54.406;18.556;2024-03-23T08:04:27;8.60;99.90
20246;DHT22;10281;54.406;18.556;2024-03-23T08:06:54;8.70;99.90
20246;DHT22;10281;54.406;18.556;2024-03-23T08:09:21;8.70;99.90
20246;DHT22;10281;54.406;18.556;2024-03-23T08:11:48;8.80;99.90
20246;DHT22;10281;54.406;18.556;2024-03-23T08:14:15;8.90;99.90
20246;DHT22;10281;54.406;18.556;2024-03-23T08:16:41;8.80;99.90
20246;DHT22;10281;54.406;18.556;2024-03-23T08:19:10;8.80;99.90
20246;DHT22;10281;54.406;18.556;2024-03-23T08:21:37;8.80;99.90
20246;DHT22;10281;54.406;18.556;2024-03-23T08:24:04;8.80;99.90
20246;DHT22;10281;54.406;18.556;2024-03-23T08:26:31;8.80;99.90
20246;DHT22;10281;54.406;18.556;2024-03-23T08:28:58;8.80;99.90
20246;DHT22;10281;54.406;18.556;2024-03-23T08:31:25;8.80;99.90
20246;DHT22;10281;54.406;18.556;2024-03-23T08:33:51;8.80;99.90
20246;DHT22;10281;54.406;18.556;2024-03-23T08:36:18;8.80;99.90
20246;DHT22;10281;54.406;18.556;2024-03-23T08:38:45;8.80;99.90
20246;DHT22;10281;54.406;18.556;2024-03-23T08:41:13;8.80;99.90
20246;DHT22;10281;54.406;18.556;2024-03-23T08:43:41;8.90;99.90
20246;DHT22;10281;54.406;18.556;2024-03-23T08:46:10;8.90;99.90
20246;DHT22;10281;54.406;18.556;2024-03-23T08:48:39;9.00;99.90
20246;DHT22;10281;54.406;18.556;2024-03-23T08:51:09;9.10;99.90
20246;DHT22;10281;54.406;18.556;2024-03-23T08:53:36;9.30;99.90
20246;DHT22;10281;54.406;18.556;2024-03-23T08:56:04;9.30;99.90
20246;DHT22;10281;54.406;18.556;2024-03-23T08:58:32;9.20;99.90
20246;DHT22;10281;54.406;18.556;2024-03-23T09:01:10;9.30;99.90
20246;DHT22;10281;54.406;18.556;2024-03-23T09:03:39;9.30;99.90
20246;DHT22;10281;54.406;18.556;2024-03-23T09:06:09;9.30;99.90
20246;DHT22;10281;54.406;18.556;2024-03-23T09:08:37;9.30;99.90
20246;DHT22;10281;54.406;18.556;2024-03-23T09:11:07;9.20;99.90
20246;DHT22;10281;54.406;18.556;2024-03-23T09:13:36;9.30;99.90
20246;DHT22;10281;54.406;18.556;2024-03-23T09:16:04;9.30;99.90
20246;DHT22;10281;54.406;18.556;2024-03-23T09:18:33;9.20;99.90
20246;DHT22;10281;54.406;18.556;2024-03-23T09:21:02;9.30;99.90
20246;DHT22;10281;54.406;18.556;2024-03-23T09:23:29;9.30;99.90
20246;DHT22;10281;54.406;18.556;2024-03-23T09:25:55;9.20;99.90
20246;DHT22;10281;54.406;18.556;2024-03-23T09:28:22;9.20;99.90
20246;DHT22;10281;54.406;18.556;2024-03-23T09:30:49;9.20;99.90
20246;DHT22;10281;54.406;18.556;2024-03-23T09:33:15;9.30;99.90
20246;DHT22;10281;54.406;18.556;2024-03-23T09:35:44;9.40;99.90
20246;DHT22;10281;54.406;18.556;2024-03-23T09:38:10;9.40;99.90
20246;DHT22;10281;54.406;18.556;2024-03-23T09:40:41;9.40;99.90
20246;DHT22;10281;54.406;18.556;2024-03-23T09:43:09;9.40;99.90
20246;DHT22;10281;54.406;18.556;2024-03-23T09:45:38;9.40;99.90
20246;DHT22;10281;54.406;18.556;2024-03-23T09:48:08;9.40;99.90
20246;DHT22;10281;54.406;18.556;2024-03-23T09:50:38;9.50;99.90
20246;DHT22;10281;54.406;18.556;2024-03-23T09:53:10;9.60;99.90
20246;DHT22;10281;54.406;18.556;2024-03-23T09:55:39;9.60;99.90
20246;DHT22;10281;54.406;18.556;2024-03-23T09:58:07;9.70;99.90
20246;DHT22;10281;54.406;18.556;2024-03-23T10:00:34;9.60;99.90
20246;DHT22;10281;54.406;18.556;2024-03-23T10:03:01;9.60;99.90
20246;DHT22;10281;54.406;18.556;2024-03-23T10:05:29;9.60;99.90
20246;DHT22;10281;54.406;18.556;2024-03-23T10:07:58;9.60;99.90
20246;DHT22;10281;54.406;18.556;2024-03-23T10:10:26;9.70;99.90
20246;DHT22;10281;54.406;18.556;2024-03-23T10:12:52;9.70;99.90
20246;DHT22;10281;54.406;18.556;2024-03-23T10:15:22;9.70;99.90
20246;DHT22;10281;54.406;18.556;2024-03-23T10:17:49;9.80;99.90
20246;DHT22;10281;54.406;18.556;2024-03-23T10:20:21;9.80;99.90
20246;DHT22;10281;54.406;18.556;2024-03-23T10:22:49;9.90;99.90
20246;DHT22;10281;54.406;18.556;2024-03-23T10:25:18;9.80;99.90
20246;DHT22;10281;54.406;18.556;2024-03-23T10:30:21;10.00;99.90
20246;DHT22;10281;54.406;18.556;2024-03-23T10:32:50;10.00;99.90
20246;DHT22;10281;54.406;18.556;2024-03-23T10:35:18;10.00;99.90
20246;DHT22;10281;54.406;18.556;2024-03-23T10:37:45;10.00;99.90
20246;DHT22;10281;54.406;18.556;2024-03-23T10:40:13;10.10;99.90
20246;DHT22;10281;54.406;18.556;2024-03-23T10:42:40;10.30;99.90
20246;DHT22;10281;54.406;18.556;2024-03-23T10:45:08;10.40;99.90
20246;DHT22;10281;54.406;18.556;2024-03-23T10:47:36;10.40;99.90
20246;DHT22;10281;54.406;18.556;2024-03-23T10:50:04;10.40;99.90
20246;DHT22;10281;54.406;18.556;2024-03-23T10:52:33;10.30;99.90
20246;DHT22;10281;54.406;18.556;2024-03-23T10:55:03;10.50;99.90
20246;DHT22;10281;54.406;18.556;2024-03-23T10:57:40;10.50;99.90
20246;DHT22;10281;54.406;18.556;2024-03-23T11:00:06;10.50;99.90
20246;DHT22;10281;54.406;18.556;2024-03-23T11:02:34;10.40;99.90
20246;DHT22;10281;54.406;18.556;2024-03-23T11:05:01;10.30;99.90
20246;DHT22;10281;54.406;18.556;2024-03-23T11:07:30;10.20;99.90
20246;DHT22;10281;54.406;18.556;2024-03-23T11:09:59;10.10;99.90
20246;DHT22;10281;54.406;18.556;2024-03-23T11:12:28;10.20;99.90
20246;DHT22;10281;54.406;18.556;2024-03-23T11:15:01;10.10;99.90
20246;DHT22;10281;54.406;18.556;2024-03-23T11:17:28;10.10;99.90
20246;DHT22;10281;54.406;18.556;2024-03-23T11:20:00;10.10;99.90
20246;DHT22;10281;54.406;18.556;2024-03-23T11:22:39;10.10;99.90
20246;DHT22;10281;54.406;18.556;2024-03-23T11:25:13;10.00;99.90
20246;DHT22;10281;54.406;18.556;2024-03-23T11:27:40;10.10;99.90
20246;DHT22;10281;54.406;18.556;2024-03-23T11:30:19;10.10;99.90
20246;DHT22;10281;54.406;18.556;2024-03-23T11:32:50;10.20;99.90
20246;DHT22;10281;54.406;18.556;2024-03-23T11:35:26;10.20;99.90
20246;DHT22;10281;54.406;18.556;2024-03-23T11:38:04;10.40;99.90
20246;DHT22;10281;54.406;18.556;2024-03-23T11:40:31;10.30;99.90
20246;DHT22;10281;54.406;18.556;2024-03-23T11:43:00;10.30;99.90
20246;DHT22;10281;54.406;18.556;2024-03-23T11:45:27;10.40;99.90
20246;DHT22;10281;54.406;18.556;2024-03-23T11:48:02;10.40;99.90
20246;DHT22;10281;54.406;18.556;2024-03-23T11:50:29;10.30;99.90
20246;DHT22;10281;54.406;18.556;2024-03-23T11:55:44;10.30;99.90
20246;DHT22;10281;54.406;18.556;2024-03-23T11:58:11;10.30;99.90
20246;DHT22;10281;54.406;18.556;2024-03-23T12:00:38;10.30;99.90
20246;DHT22;10281;54.406;18.556;2024-03-23T12:03:05;10.30;99.90
20246;DHT22;10281;54.406;18.556;2024-03-23T12:05:33;10.40;99.90
20246;DHT22;10281;54.406;18.556;2024-03-23T12:10:38;10.50;99.90
20246;DHT22;10281;54.406;18.556;2024-03-23T12:13:05;10.30;99.90
20246;DHT22;10281;54.406;18.556;2024-03-23T12:15:32;10.30;99.90
20246;DHT22;10281;54.406;18.556;2024-03-23T12:18:06;10.30;99.90
20246;DHT22;10281;54.406;18.556;2024-03-23T12:20:32;10.30;99.90
20246;DHT22;10281;54.406;18.556;2024-03-23T12:23:06;10.30;99.90
20246;DHT22;10281;54.406;18.556;2024-03-23T12:25:34;10.50;99.90
20246;DHT22;10281;54.406;18.556;2024-03-23T12:28:00;10.60;99.90
20246;DHT22;10281;54.406;18.556;2024-03-23T12:30:27;10.80;99.90
20246;DHT22;10281;54.406;18.556;2024-03-23T12:32:54;10.90;99.90
20246;DHT22;10281;54.406;18.556;2024-03-23T12:35:20;10.90;99.90
20246;DHT22;10281;54.406;18.556;2024-03-23T12:37:47;10.80;99.90
20246;DHT22;10281;54.406;18.556;2024-03-23T12:40:13;10.70;99.90
20246;DHT22;10281;54.406;18.556;2024-03-23T12:42:40;10.60;99.90
20246;DHT22;10281;54.406;18.556;2024-03-23T12:45:07;10.60;99.90
20246;DHT22;10281;54.406;18.556;2024-03-23T12:47:34;10.60;99.90
20246;DHT22;10281;54.406;18.556;2024-03-23T12:50:01;10.50;99.90
20246;DHT22;10281;54.406;18.556;2024-03-23T12:52:27;10.40;99.90
20246;DHT22;10281;54.406;18.556;2024-03-23T12:54:56;10.30;99.90
20246;DHT22;10281;54.406;18.556;2024-03-23T12:57:24;10.30;99.90
20246;DHT22;10281;54.406;18.556;2024-03-23T12:59:52;10.30;99.90
20246;DHT22;10281;54.406;18.556;2024-03-23T13:02:20;10.30;99.90
20246;DHT22;10281;54.406;18.556;2024-03-23T13:04:51;10.30;99.90
20246;DHT22;10281;54.406;18.556;2024-03-23T13:07:19;10.20;99.90
20246;DHT22;10281;54.406;18.556;2024-03-23T13:09:46;10.20;99.90
20246;DHT22;10281;54.406;18.556;2024-03-23T13:12:13;10.10;99.90
20246;DHT22;10281;54.406;18.556;2024-03-23T13:14:40;10.00;99.90
20246;DHT22;10281;54.406;18.556;2024-03-23T13:17:07;10.10;99.90
20246;DHT22;10281;54.406;18.556;2024-03-23T13:19:34;10.00;99.90
20246;DHT22;10281;54.406;18.556;2024-03-23T13:22:01;10.00;99.90
20246;DHT22;10281;54.406;18.556;2024-03-23T13:24:29;9.90;99.90
20246;DHT22;10281;54.406;18.556;2024-03-23T13:26:56;9.90;99.90
20246;DHT22;10281;54.406;18.556;2024-03-23T13:29:24;9.80;99.90
20246;DHT22;10281;54.406;18.556;2024-03-23T13:31:51;9.70;99.90
20246;DHT22;10281;54.406;18.556;2024-03-23T13:34:18;9.50;99.90
20246;DHT22;10281;54.406;18.556;2024-03-23T13:36:47;9.20;99.90
20246;DHT22;10281;54.406;18.556;2024-03-23T13:39:14;9.20;99.90
20246;DHT22;10281;54.406;18.556;2024-03-23T13:41:44;9.10;99.90
20246;DHT22;10281;54.406;18.556;2024-03-23T13:44:12;8.90;99.90
20246;DHT22;10281;54.406;18.556;2024-03-23T13:46:41;8.80;99.90
20246;DHT22;10281;54.406;18.556;2024-03-23T13:49:26;8.50;99.90
20246;DHT22;10281;54.406;18.556;2024-03-23T13:51:55;8.40;99.90
20246;DHT22;10281;54.406;18.556;2024-03-23T13:54:26;8.50;99.90
20246;DHT22;10281;54.406;18.556;2024-03-23T13:56:55;8.40;99.90
20246;DHT22;10281;54.406;18.556;2024-03-23T13:59:22;8.40;99.90
20246;DHT22;10281;54.406;18.556;2024-03-23T14:01:50;8.10;99.90
20246;DHT22;10281;54.406;18.556;2024-03-23T14:04:17;8.10;99.90
20246;DHT22;10281;54.406;18.556;2024-03-23T14:06:46;8.00;99.90
20246;DHT22;10281;54.406;18.556;2024-03-23T14:09:13;8.00;99.90
20246;DHT22;10281;54.406;18.556;2024-03-23T14:11:41;8.10;99.90
20246;DHT22;10281;54.406;18.556;2024-03-23T14:14:09;7.90;99.90
20246;DHT22;10281;54.406;18.556;2024-03-23T14:19:09;7.80;99.90
20246;DHT22;10281;54.406;18.556;2024-03-23T14:21:36;7.80;99.90
20246;DHT22;10281;54.406;18.556;2024-03-23T14:24:03;7.70;99.90
20246;DHT22;10281;54.406;18.556;2024-03-23T14:26:30;7.60;99.90
20246;DHT22;10281;54.406;18.556;2024-03-23T14:28:56;7.50;99.90
20246;DHT22;10281;54.406;18.556;2024-03-23T14:31:23;7.50;99.90
20246;DHT22;10281;54.406;18.556;2024-03-23T14:33:51;7.60;99.90
20246;DHT22;10281;54.406;18.556;2024-03-23T14:36:17;7.70;99.90
20246;DHT22;10281;54.406;18.556;2024-03-23T14:38:48;7.80;99.90
20246;DHT22;10281;54.406;18.556;2024-03-23T14:41:15;7.80;99.90
20246;DHT22;10281;54.406;18.556;2024-03-23T14:43:42;7.90;99.90
20246;DHT22;10281;54.406;18.556;2024-03-23T14:46:13;7.90;99.90
20246;DHT22;10281;54.406;18.556;2024-03-23T14:48:41;8.00;99.90
20246;DHT22;10281;54.406;18.556;2024-03-23T14:51:09;8.00;99.90
20246;DHT22;10281;54.406;18.556;2024-03-23T14:53:37;8.00;99.90
20246;DHT22;10281;54.406;18.556;2024-03-23T14:56:07;8.00;99.90
20246;DHT22;10281;54.406;18.556;2024-03-23T14:58:34;7.90;99.90
20246;DHT22;10281;54.406;18.556;2024-03-23T15:01:03;8.00;99.90
20246;DHT22;10281;54.406;18.556;2024-03-23T15:03:30;8.00;99.90
20246;DHT22;10281;54.406;18.556;2024-03-23T15:05:58;8.00;99.90
20246;DHT22;10281;54.406;18.556;2024-03-23T15:08:26;8.00;99.90
20246;DHT22;10281;54.406;18.556;2024-03-23T15:10:54;8.00;99.90
20246;DHT22;10281;54.406;18.556;2024-03-23T15:13:20;8.00;99.90
20246;DHT22;10281;54.406;18.556;2024-03-23T15:15:49;8.00;99.90
20246;DHT22;10281;54.406;18.556;2024-03-23T15:18:17;8.00;99.90
20246;DHT22;10281;54.406;18.556;2024-03-23T15:20:53;7.90;99.90
20246;DHT22;10281;54.406;18.556;2024-03-23T15:23:19;7.80;99.90
20246;DHT22;10281;54.406;18.556;2024-03-23T15:25:53;7.80;99.90
20246;DHT22;10281;54.406;18.556;2024-03-23T15:28:15;7.70;99.90
20246;DHT22;10281;54.406;18.556;2024-03-23T15:30:41;7.80;99.90
20246;DHT22;10281;54.406;18.556;2024-03-23T15:33:08;7.80;99.90
20246;DHT22;10281;54.406;18.556;2024-03-23T15:35:35;7.80;99.90
20246;DHT22;10281;54.406;18.556;2024-03-23T15:38:01;7.80;99.90
20246;DHT22;10281;54.406;18.556;2024-03-23T15:40:28;7.90;99.90
20246;DHT22;10281;54.406;18.556;2024-03-23T15:42:55;7.90;99.90
20246;DHT22;10281;54.406;18.556;2024-03-23T15:45:21;8.00;99.90
20246;DHT22;10281;54.406;18.556;2024-03-23T15:47:48;8.00;99.90
20246;DHT22;10281;54.406;18.556;2024-03-23T15:50:15;8.00;99.90
20246;DHT22;10281;54.406;18.556;2024-03-23T15:52:42;8.00;99.90
20246;DHT22;10281;54.406;18.556;2024-03-23T15:55:08;8.00;99.90
20246;DHT22;10281;54.406;18.556;2024-03-23T15:57:36;8.10;99.90
20246;DHT22;10281;54.406;18.556;2024-03-23T16:00:03;8.10;99.90
20246;DHT22;10281;54.406;18.556;2024-03-23T16:02:30;8.00;99.90
20246;DHT22;10281;54.406;18.556;2024-03-23T16:04:56;8.10;99.90
20246;DHT22;10281;54.406;18.556;2024-03-23T16:07:24;8.00;99.90
20246;DHT22;10281;54.406;18.556;2024-03-23T16:09:51;8.00;99.90
20246;DHT22;10281;54.406;18.556;2024-03-23T16:12:17;8.00;99.90
20246;DHT22;10281;54.406;18.556;2024-03-23T16:14:44;8.00;99.90
20246;DHT22;10281;54.406;18.556;2024-03-23T16:17:10;8.10;99.90
20246;DHT22;10281;54.406;18.556;2024-03-23T16:19:37;8.10;99.90
20246;DHT22;10281;54.406;18.556;2024-03-23T16:22:04;8.10;99.90
20246;DHT22;10281;54.406;18.556;2024-03-23T16:24:30;8.20;99.90
20246;DHT22;10281;54.406;18.556;2024-03-23T16:26:57;8.10;99.90
20246;DHT22;10281;54.406;18.556;2024-03-23T16:29:23;8.10;99.90
20246;DHT22;10281;54.406;18.556;2024-03-23T16:31:50;8.10;99.90